createdAt,value
2017-11-12T00:00:06.218Z,0.00
2017-11-12T00:01:06.175Z,0.00
2017-11-12T00:02:06.133Z,0.00
2017-11-12T00:03:06.094Z,0.00
2017-11-12T00:04:06.057Z,0.00
2017-11-12T00:05:06.019Z,0.00
2017-11-12T00:06:05.979Z,0.00
2017-11-12T00:07:05.938Z,0.00
2017-11-12T00:08:05.901Z,0.00
2017-11-12T00:09:05.862Z,0.00
2017-11-12T00:10:05.821Z,0.00
2017-11-12T00:11:05.785Z,0.00
2017-11-12T00:12:06.175Z,0.00
2017-11-12T00:13:05.779Z,0.00
2017-11-12T00:14:05.662Z,0.00
2017-11-12T00:15:05.635Z,0.00
2017-11-12T00:16:05.597Z,0.00
2017-11-12T00:17:05.548Z,0.00
2017-11-12T00:18:05.509Z,0.00
2017-11-12T00:19:05.479Z,0.00
2017-11-12T00:20:05.434Z,0.00
2017-11-12T00:21:05.806Z,0.00
2017-11-12T00:22:05.355Z,0.00
2017-11-12T00:23:05.316Z,0.00
2017-11-12T00:24:06.113Z,0.00
2017-11-12T00:25:05.236Z,0.00
2017-11-12T00:26:05.199Z,0.00
2017-11-12T00:27:05.160Z,0.00
2017-11-12T00:28:05.122Z,0.00
2017-11-12T00:29:05.083Z,0.00
2017-11-12T00:30:05.051Z,0.00
2017-11-12T00:31:05.004Z,0.00
2017-11-12T00:32:04.966Z,0.00
2017-11-12T00:33:04.928Z,0.00
2017-11-12T00:34:04.888Z,0.00
2017-11-12T00:35:04.848Z,0.00
2017-11-12T00:36:04.812Z,0.00
2017-11-12T00:37:04.772Z,0.00
2017-11-12T00:38:04.732Z,0.00
2017-11-12T00:39:04.694Z,0.00
2017-11-12T00:40:04.655Z,0.00
2017-11-12T00:41:04.616Z,0.00
2017-11-12T00:42:04.578Z,0.00
2017-11-12T00:43:04.537Z,0.00
2017-11-12T00:44:04.499Z,0.00
2017-11-12T00:45:04.461Z,0.00
2017-11-12T00:46:04.420Z,0.00
2017-11-12T00:47:04.382Z,0.00
2017-11-12T00:48:04.343Z,0.00
2017-11-12T00:49:04.305Z,0.00
2017-11-12T00:50:04.267Z,0.00
2017-11-12T00:51:04.734Z,0.00
2017-11-12T00:52:04.189Z,0.00
2017-11-12T00:53:04.150Z,0.00
2017-11-12T00:54:04.110Z,0.00
2017-11-12T00:55:04.070Z,0.00
2017-11-12T00:56:04.031Z,0.00
2017-11-12T00:57:03.994Z,0.00
2017-11-12T00:58:03.962Z,0.00
2017-11-12T00:59:03.915Z,0.00
2017-11-12T01:00:03.877Z,0.00
2017-11-12T01:01:03.843Z,0.00
2017-11-12T01:02:03.799Z,0.00
2017-11-12T01:03:03.760Z,0.00
2017-11-12T01:04:03.727Z,0.00
2017-11-12T01:05:03.678Z,0.00
2017-11-12T01:06:03.643Z,0.00
2017-11-12T01:07:03.611Z,0.00
2017-11-12T01:08:03.567Z,0.00
2017-11-12T01:09:03.527Z,0.00
2017-11-12T01:10:03.489Z,0.00
2017-11-12T01:11:03.450Z,0.00
2017-11-12T01:12:03.411Z,0.00
2017-11-12T01:13:03.372Z,0.00
2017-11-12T01:14:03.329Z,0.00
2017-11-12T01:15:03.293Z,0.00
2017-11-12T01:16:03.266Z,0.00
2017-11-12T01:17:03.215Z,0.00
2017-11-12T01:18:03.179Z,0.00
2017-11-12T01:19:03.147Z,0.00
2017-11-12T01:20:03.097Z,0.00
2017-11-12T01:21:03.059Z,0.00
2017-11-12T01:22:03.020Z,0.00
2017-11-12T01:23:02.982Z,0.00
2017-11-12T01:24:02.942Z,0.00
2017-11-12T01:25:02.906Z,0.00
2017-11-12T01:26:02.863Z,0.00
2017-11-12T01:27:02.825Z,0.00
2017-11-12T01:28:02.790Z,0.00
2017-11-12T01:29:02.747Z,0.00
2017-11-12T01:30:02.709Z,0.00
2017-11-12T01:31:02.670Z,0.00
2017-11-12T01:32:02.632Z,0.00
2017-11-12T01:33:02.593Z,0.00
2017-11-12T01:34:02.553Z,0.00
2017-11-12T01:35:02.513Z,0.00
2017-11-12T01:36:02.476Z,0.00
2017-11-12T01:37:02.435Z,0.00
2017-11-12T01:38:02.396Z,0.00
2017-11-12T01:39:02.359Z,0.00
2017-11-12T01:40:02.320Z,0.00
2017-11-12T01:41:02.280Z,0.00
2017-11-12T01:42:02.240Z,0.00
2017-11-12T01:43:02.202Z,0.00
2017-11-12T01:44:02.168Z,0.00
2017-11-12T01:45:02.123Z,0.00
2017-11-12T01:46:02.085Z,0.00
2017-11-12T01:47:02.051Z,0.00
2017-11-12T01:48:02.008Z,0.00
2017-11-12T01:49:01.970Z,0.00
2017-11-12T01:50:01.928Z,0.00
2017-11-12T01:51:01.890Z,0.00
2017-11-12T01:52:01.851Z,0.00
2017-11-12T01:53:01.814Z,0.00
2017-11-12T01:54:01.774Z,0.00
2017-11-12T01:55:01.736Z,0.00
2017-11-12T01:56:01.696Z,0.00
2017-11-12T01:57:01.657Z,0.00
2017-11-12T01:58:01.617Z,0.00
2017-11-12T01:59:01.578Z,0.00
2017-11-12T02:00:01.538Z,0.00
2017-11-12T02:01:01.500Z,0.00
2017-11-12T02:02:01.460Z,0.00
2017-11-12T02:03:01.423Z,0.00
2017-11-12T02:04:01.383Z,0.00
2017-11-12T02:05:01.345Z,0.00
2017-11-12T02:06:01.305Z,0.00
2017-11-12T02:07:01.266Z,0.00
2017-11-12T02:08:01.227Z,0.00
2017-11-12T02:09:01.189Z,0.00
2017-11-12T02:10:01.149Z,0.00
2017-11-12T02:11:01.108Z,0.00
2017-11-12T02:12:01.069Z,0.00
2017-11-12T02:13:01.031Z,0.00
2017-11-12T02:14:01.000Z,0.00
2017-11-12T02:15:00.954Z,0.00
2017-11-12T02:16:00.914Z,0.00
2017-11-12T02:17:00.876Z,0.00
2017-11-12T02:18:00.834Z,0.00
2017-11-12T02:19:00.797Z,0.00
2017-11-12T02:20:00.757Z,0.00
2017-11-12T02:21:00.721Z,0.00
2017-11-12T02:22:00.679Z,0.00
2017-11-12T02:23:00.642Z,0.00
2017-11-12T02:24:00.601Z,0.00
2017-11-12T02:25:00.564Z,0.00
2017-11-12T02:26:00.523Z,0.00
2017-11-12T02:27:00.485Z,0.00
2017-11-12T02:28:00.444Z,0.00
2017-11-12T02:29:00.407Z,0.00
2017-11-12T02:30:00.367Z,0.00
2017-11-12T02:31:00.325Z,0.00
2017-11-12T02:32:00.292Z,0.00
2017-11-12T02:33:00.250Z,0.00
2017-11-12T02:34:00.214Z,0.00
2017-11-12T02:35:00.176Z,0.00
2017-11-12T02:36:00.131Z,0.00
2017-11-12T02:37:00.095Z,0.00
2017-11-12T02:38:00.054Z,0.00
2017-11-12T02:39:00.022Z,0.00
2017-11-12T02:39:59.973Z,0.00
2017-11-12T02:40:59.937Z,0.00
2017-11-12T02:41:59.897Z,0.00
2017-11-12T02:42:59.858Z,0.00
2017-11-12T02:43:59.819Z,0.00
2017-11-12T02:44:59.775Z,0.00
2017-11-12T02:45:59.741Z,0.00
2017-11-12T02:46:59.706Z,0.00
2017-11-12T02:47:59.662Z,0.00
2017-11-12T02:48:59.621Z,0.00
2017-11-12T02:49:59.582Z,0.00
2017-11-12T02:50:59.550Z,0.00
2017-11-12T02:51:59.503Z,0.00
2017-11-12T02:52:59.465Z,0.00
2017-11-12T02:53:59.457Z,0.00
2017-11-12T02:54:59.386Z,0.00
2017-11-12T02:55:59.349Z,0.00
2017-11-12T02:56:59.308Z,0.00
2017-11-12T02:57:59.268Z,0.00
2017-11-12T02:58:59.229Z,0.00
2017-11-12T02:59:59.189Z,0.00
2017-11-12T03:00:59.150Z,0.00
2017-11-12T03:01:59.111Z,0.00
2017-11-12T03:02:59.071Z,0.00
2017-11-12T03:03:59.032Z,0.00
2017-11-12T03:04:59.025Z,0.00
2017-11-12T03:05:58.953Z,0.00
2017-11-12T03:06:58.914Z,0.00
2017-11-12T03:07:58.874Z,0.00
2017-11-12T03:08:58.842Z,0.00
2017-11-12T03:09:58.796Z,0.00
2017-11-12T03:10:58.774Z,0.00
2017-11-12T03:11:58.717Z,0.00
2017-11-12T03:12:58.677Z,0.00
2017-11-12T03:13:58.637Z,0.00
2017-11-12T03:14:58.599Z,0.00
2017-11-12T03:15:58.558Z,0.00
2017-11-12T03:16:58.526Z,0.00
2017-11-12T03:17:58.478Z,0.00
2017-11-12T03:18:58.439Z,0.00
2017-11-12T03:19:58.401Z,0.00
2017-11-12T03:20:58.374Z,0.00
2017-11-12T03:21:58.322Z,0.00
2017-11-12T03:22:58.281Z,0.00
2017-11-12T03:23:58.245Z,0.00
2017-11-12T03:24:58.205Z,0.00
2017-11-12T03:25:58.165Z,0.00
2017-11-12T03:26:58.125Z,0.00
2017-11-12T03:27:58.087Z,0.00
2017-11-12T03:28:58.047Z,0.00
2017-11-12T03:29:58.009Z,0.00
2017-11-12T03:30:57.970Z,0.00
2017-11-12T03:31:57.929Z,0.00
2017-11-12T03:32:57.890Z,0.00
2017-11-12T03:33:57.851Z,0.00
2017-11-12T03:34:57.811Z,0.00
2017-11-12T03:35:57.772Z,0.00
2017-11-12T03:36:57.733Z,0.00
2017-11-12T03:37:57.695Z,0.00
2017-11-12T03:38:57.665Z,0.00
2017-11-12T03:39:57.615Z,0.00
2017-11-12T03:40:57.577Z,0.00
2017-11-12T03:41:57.537Z,0.00
2017-11-12T03:42:57.502Z,0.00
2017-11-12T03:43:57.457Z,0.00
2017-11-12T03:44:57.420Z,0.00
2017-11-12T03:45:57.377Z,0.00
2017-11-12T03:46:57.344Z,0.00
2017-11-12T03:47:57.301Z,0.00
2017-11-12T03:48:57.262Z,0.00
2017-11-12T03:49:57.224Z,0.00
2017-11-12T03:50:57.182Z,0.00
2017-11-12T03:51:57.144Z,0.00
2017-11-12T03:52:57.110Z,0.00
2017-11-12T03:53:57.064Z,0.00
2017-11-12T03:54:57.025Z,0.00
2017-11-12T03:55:56.987Z,0.00
2017-11-12T03:56:56.947Z,0.00
2017-11-12T03:57:56.913Z,0.00
2017-11-12T03:58:56.871Z,0.00
2017-11-12T03:59:56.830Z,0.00
2017-11-12T04:00:56.793Z,0.00
2017-11-12T04:01:56.751Z,0.00
2017-11-12T04:02:56.712Z,0.00
2017-11-12T04:03:56.672Z,0.00
2017-11-12T04:04:56.634Z,0.00
2017-11-12T04:05:56.593Z,0.00
2017-11-12T04:06:56.559Z,0.00
2017-11-12T04:07:56.523Z,0.00
2017-11-12T04:08:56.477Z,0.00
2017-11-12T04:09:56.437Z,0.00
2017-11-12T04:10:56.397Z,0.00
2017-11-12T04:11:56.366Z,0.00
2017-11-12T04:12:56.321Z,0.00
2017-11-12T04:13:56.279Z,0.00
2017-11-12T04:14:56.252Z,0.00
2017-11-12T04:15:56.201Z,0.00
2017-11-12T04:16:56.162Z,0.00
2017-11-12T04:17:56.122Z,0.00
2017-11-12T04:18:56.082Z,0.00
2017-11-12T04:19:56.045Z,0.00
2017-11-12T04:20:56.006Z,0.00
2017-11-12T04:21:55.966Z,0.00
2017-11-12T04:22:55.926Z,0.00
2017-11-12T04:23:55.895Z,0.00
2017-11-12T04:24:55.850Z,0.00
2017-11-12T04:25:55.810Z,0.00
2017-11-12T04:26:55.771Z,0.00
2017-11-12T04:27:55.733Z,0.00
2017-11-12T04:28:55.693Z,0.00
2017-11-12T04:29:55.652Z,0.00
2017-11-12T04:30:55.615Z,0.00
2017-11-12T04:31:55.575Z,0.00
2017-11-12T04:32:55.538Z,0.00
2017-11-12T04:33:55.500Z,0.00
2017-11-12T04:34:55.458Z,0.00
2017-11-12T04:35:55.419Z,0.00
2017-11-12T04:36:55.380Z,0.00
2017-11-12T04:37:55.340Z,0.00
2017-11-12T04:38:55.301Z,0.00
2017-11-12T04:39:55.262Z,0.00
2017-11-12T04:40:55.225Z,0.00
2017-11-12T04:41:55.185Z,0.00
2017-11-12T04:42:55.145Z,0.00
2017-11-12T04:43:55.107Z,0.00
2017-11-12T04:44:55.067Z,0.00
2017-11-12T04:45:55.043Z,0.00
2017-11-12T04:46:54.989Z,0.00
2017-11-12T04:47:54.952Z,0.00
2017-11-12T04:48:54.911Z,0.00
2017-11-12T04:49:54.871Z,0.00
2017-11-12T04:50:54.833Z,0.00
2017-11-12T04:51:54.793Z,0.00
2017-11-12T04:52:54.754Z,0.00
2017-11-12T04:53:54.715Z,0.00
2017-11-12T04:54:54.677Z,0.00
2017-11-12T04:55:54.637Z,0.00
2017-11-12T04:56:54.598Z,0.00
2017-11-12T04:57:54.559Z,0.00
2017-11-12T04:58:54.520Z,0.00
2017-11-12T04:59:54.483Z,0.00
2017-11-12T05:00:54.443Z,0.00
2017-11-12T05:01:54.404Z,0.00
2017-11-12T05:02:54.365Z,0.00
2017-11-12T05:03:54.327Z,0.00
2017-11-12T05:04:54.286Z,0.00
2017-11-12T05:05:54.247Z,0.00
2017-11-12T05:06:54.207Z,0.00
2017-11-12T05:07:54.170Z,0.00
2017-11-12T05:08:54.131Z,0.00
2017-11-12T05:09:54.099Z,0.00
2017-11-12T05:10:54.060Z,0.00
2017-11-12T05:11:54.027Z,0.00
2017-11-12T05:12:53.983Z,0.00
2017-11-12T05:13:53.936Z,0.00
2017-11-12T05:14:53.897Z,0.00
2017-11-12T05:15:53.861Z,0.00
2017-11-12T05:16:53.820Z,0.00
2017-11-12T05:17:53.781Z,0.00
2017-11-12T05:18:53.752Z,0.00
2017-11-12T05:19:53.702Z,0.00
2017-11-12T05:20:53.663Z,0.00
2017-11-12T05:21:53.625Z,0.00
2017-11-12T05:22:53.584Z,0.00
2017-11-12T05:23:53.549Z,0.00
2017-11-12T05:24:53.949Z,0.00
2017-11-12T05:25:53.469Z,0.00
2017-11-12T05:26:53.431Z,0.00
2017-11-12T05:27:53.389Z,0.00
2017-11-12T05:28:53.353Z,0.00
2017-11-12T05:29:53.324Z,0.00
2017-11-12T05:30:53.274Z,0.00
2017-11-12T05:31:53.236Z,0.00
2017-11-12T05:32:53.195Z,0.00
2017-11-12T05:33:53.360Z,0.00
2017-11-12T05:34:53.117Z,0.00
2017-11-12T05:35:53.079Z,0.00
2017-11-12T05:36:53.039Z,0.00
2017-11-12T05:37:52.999Z,0.00
2017-11-12T05:38:52.959Z,0.00
2017-11-12T05:39:52.919Z,0.00
2017-11-12T05:40:52.880Z,0.00
2017-11-12T05:41:52.848Z,0.00
2017-11-12T05:42:52.801Z,0.00
2017-11-12T05:43:52.769Z,0.00
2017-11-12T05:44:52.722Z,0.00
2017-11-12T05:45:52.682Z,0.00
2017-11-12T05:46:52.659Z,0.00
2017-11-12T05:47:52.604Z,0.00
2017-11-12T05:48:52.565Z,0.00
2017-11-12T05:49:52.524Z,0.00
2017-11-12T05:50:52.486Z,0.00
2017-11-12T05:51:52.445Z,0.00
2017-11-12T05:52:52.407Z,0.00
2017-11-12T05:53:52.368Z,0.00
2017-11-12T05:54:52.343Z,0.00
2017-11-12T05:55:52.290Z,0.00
2017-11-12T05:56:52.249Z,0.00
2017-11-12T05:57:52.207Z,0.00
2017-11-12T05:58:52.169Z,0.00
2017-11-12T05:59:52.129Z,0.00
2017-11-12T06:00:52.091Z,0.00
2017-11-12T06:03:24.135Z,0.00
2017-11-12T06:04:24.045Z,0.00
2017-11-12T06:05:24.004Z,0.00
2017-11-12T06:06:23.965Z,0.00
2017-11-12T06:07:23.925Z,0.00
2017-11-12T06:08:23.884Z,0.00
2017-11-12T06:09:23.846Z,0.00
2017-11-12T06:10:23.804Z,0.00
2017-11-12T06:11:23.765Z,0.00
2017-11-12T06:12:23.726Z,0.00
2017-11-12T06:13:23.687Z,0.00
2017-11-12T06:14:23.647Z,0.00
2017-11-12T06:15:23.606Z,0.00
2017-11-12T06:16:23.564Z,0.00
2017-11-12T06:17:23.527Z,0.00
2017-11-12T06:18:23.489Z,0.00
2017-11-12T06:19:23.450Z,0.00
2017-11-12T06:20:23.408Z,0.00
2017-11-12T06:21:23.370Z,0.00
2017-11-12T06:22:23.330Z,4.00
2017-11-12T06:23:23.286Z,4.00
2017-11-12T06:24:23.250Z,0.00
2017-11-12T06:25:23.210Z,4.00
2017-11-12T06:26:23.171Z,4.00
2017-11-12T06:27:23.132Z,4.00
2017-11-12T06:28:23.091Z,4.00
2017-11-12T06:29:23.051Z,4.00
2017-11-12T06:30:23.014Z,8.00
2017-11-12T06:31:22.974Z,8.00
2017-11-12T06:32:22.939Z,8.00
2017-11-12T06:33:22.893Z,8.00
2017-11-12T06:34:22.961Z,12.00
2017-11-12T06:35:22.814Z,12.00
2017-11-12T06:36:22.775Z,12.00
2017-11-12T06:37:22.736Z,12.00
2017-11-12T06:38:22.696Z,16.00
2017-11-12T06:39:22.658Z,12.00
2017-11-12T06:40:22.616Z,16.00
2017-11-12T06:41:22.577Z,20.00
2017-11-12T06:42:22.538Z,16.00
2017-11-12T06:43:22.498Z,20.00
2017-11-12T06:44:22.458Z,20.00
2017-11-12T06:45:22.420Z,24.00
2017-11-12T06:46:22.379Z,24.00
2017-11-12T06:47:22.339Z,28.00
2017-11-12T06:48:22.299Z,32.00
2017-11-12T06:49:22.259Z,36.00
2017-11-12T06:50:22.220Z,44.00
2017-11-12T06:51:22.187Z,44.00
2017-11-12T06:52:22.141Z,48.00
2017-11-12T06:53:22.103Z,52.00
2017-11-12T06:54:22.064Z,56.00
2017-11-12T06:55:22.207Z,60.00
2017-11-12T06:56:21.982Z,64.00
2017-11-12T06:57:21.943Z,68.00
2017-11-12T06:58:21.902Z,76.00
2017-11-12T06:59:21.864Z,80.00
2017-11-12T07:00:21.947Z,84.00
2017-11-12T07:01:21.783Z,92.00
2017-11-12T07:02:21.745Z,88.00
2017-11-12T07:03:21.706Z,88.00
2017-11-12T07:04:21.665Z,84.00
2017-11-12T07:05:21.624Z,84.00
2017-11-12T07:06:21.585Z,88.00
2017-11-12T07:07:21.553Z,84.00
2017-11-12T07:08:21.506Z,88.00
2017-11-12T07:09:21.466Z,84.00
2017-11-12T07:10:21.427Z,88.00
2017-11-12T07:11:21.386Z,88.00
2017-11-12T07:12:21.345Z,88.00
2017-11-12T07:13:21.306Z,92.00
2017-11-12T07:14:21.266Z,96.00
2017-11-12T07:15:21.227Z,104.00
2017-11-12T07:16:21.188Z,112.00
2017-11-12T07:17:21.146Z,120.00
2017-11-12T07:18:21.108Z,132.00
2017-11-12T07:19:21.068Z,140.00
2017-11-12T07:20:21.026Z,144.00
2017-11-12T07:21:20.989Z,144.00
2017-11-12T07:22:20.950Z,140.00
2017-11-12T07:23:20.915Z,136.00
2017-11-12T07:24:20.875Z,128.00
2017-11-12T07:25:20.829Z,124.00
2017-11-12T07:26:20.789Z,120.00
2017-11-12T07:27:20.752Z,112.00
2017-11-12T07:28:20.709Z,112.00
2017-11-12T07:29:20.670Z,116.00
2017-11-12T07:30:20.627Z,124.00
2017-11-12T07:31:20.589Z,128.00
2017-11-12T07:32:20.555Z,136.00
2017-11-12T07:33:20.509Z,140.00
2017-11-12T07:34:20.475Z,148.00
2017-11-12T07:35:20.430Z,156.00
2017-11-12T07:36:20.389Z,172.00
2017-11-12T07:37:20.350Z,184.00
2017-11-12T07:38:20.310Z,184.00
2017-11-12T07:39:20.271Z,184.00
2017-11-12T07:40:20.230Z,188.00
2017-11-12T07:41:20.190Z,188.00
2017-11-12T07:42:20.203Z,192.00
2017-11-12T07:43:20.109Z,200.00
2017-11-12T07:44:20.072Z,204.00
2017-11-12T07:45:20.349Z,208.00
2017-11-12T07:46:19.993Z,212.00
2017-11-12T07:47:19.958Z,216.00
2017-11-12T07:48:19.918Z,204.00
2017-11-12T07:49:19.873Z,192.00
2017-11-12T07:50:19.835Z,184.00
2017-11-12T07:51:19.805Z,176.00
2017-11-12T07:52:19.756Z,172.00
2017-11-12T07:53:19.715Z,172.00
2017-11-12T07:54:19.675Z,172.00
2017-11-12T07:55:19.637Z,164.00
2017-11-12T07:56:19.596Z,164.00
2017-11-12T07:57:19.554Z,160.00
2017-11-12T07:58:19.517Z,156.00
2017-11-12T07:59:19.481Z,160.00
2017-11-12T08:00:19.437Z,168.00
2017-11-12T08:01:19.399Z,176.00
2017-11-12T08:02:19.360Z,176.00
2017-11-12T08:03:19.319Z,176.00
2017-11-12T08:04:19.279Z,172.00
2017-11-12T08:05:19.242Z,172.00
2017-11-12T08:06:19.201Z,164.00
2017-11-12T08:07:19.161Z,160.00
2017-11-12T08:08:19.129Z,156.00
2017-11-12T08:09:19.083Z,148.00
2017-11-12T08:10:19.044Z,148.00
2017-11-12T08:11:19.006Z,144.00
2017-11-12T08:12:18.961Z,140.00
2017-11-12T08:13:18.925Z,140.00
2017-11-12T08:14:18.887Z,136.00
2017-11-12T08:15:18.848Z,140.00
2017-11-12T08:16:18.806Z,140.00
2017-11-12T08:17:18.833Z,144.00
2017-11-12T08:18:18.727Z,148.00
2017-11-12T08:19:18.688Z,156.00
2017-11-12T08:20:18.644Z,176.00
2017-11-12T08:21:18.610Z,184.00
2017-11-12T08:22:18.571Z,188.00
2017-11-12T08:23:18.659Z,184.00
2017-11-12T08:24:18.492Z,176.00
2017-11-12T08:25:18.454Z,172.00
2017-11-12T08:26:18.414Z,168.00
2017-11-12T08:27:18.376Z,168.00
2017-11-12T08:28:18.336Z,168.00
2017-11-12T08:29:18.296Z,180.00
2017-11-12T08:30:18.258Z,184.00
2017-11-12T08:31:18.218Z,188.00
2017-11-12T08:32:18.178Z,188.00
2017-11-12T08:33:18.142Z,184.00
2017-11-12T08:34:18.099Z,176.00
2017-11-12T08:35:18.276Z,168.00
2017-11-12T08:36:18.018Z,160.00
2017-11-12T08:37:18.274Z,148.00
2017-11-12T08:38:17.943Z,144.00
2017-11-12T08:39:17.907Z,152.00
2017-11-12T08:40:17.976Z,156.00
2017-11-12T08:41:17.826Z,144.00
2017-11-12T08:42:17.785Z,136.00
2017-11-12T08:43:17.748Z,124.00
2017-11-12T08:44:17.709Z,116.00
2017-11-12T08:45:17.763Z,124.00
2017-11-12T08:46:17.820Z,124.00
2017-11-12T08:47:17.695Z,124.00
2017-11-12T08:48:17.600Z,120.00
2017-11-12T08:49:17.600Z,116.00
2017-11-12T08:50:17.594Z,116.00
2017-11-12T08:51:17.435Z,120.00
2017-11-12T08:52:17.394Z,124.00
2017-11-12T08:53:17.357Z,140.00
2017-11-12T08:54:17.315Z,164.00
2017-11-12T08:55:17.281Z,184.00
2017-11-12T08:56:17.240Z,204.00
2017-11-12T08:57:17.198Z,224.00
2017-11-12T08:58:17.162Z,256.00
2017-11-12T08:59:17.120Z,272.00
2017-11-12T09:00:17.080Z,268.00
2017-11-12T09:01:17.042Z,264.00
2017-11-12T09:02:17.003Z,256.00
2017-11-12T09:03:16.971Z,240.00
2017-11-12T09:04:16.923Z,240.00
2017-11-12T09:05:16.884Z,232.00
2017-11-12T09:06:16.845Z,224.00
2017-11-12T09:07:16.806Z,212.00
2017-11-12T09:08:16.765Z,200.00
2017-11-12T09:09:16.726Z,200.00
2017-11-12T09:10:16.687Z,200.00
2017-11-12T09:11:16.649Z,196.00
2017-11-12T09:12:16.612Z,204.00
2017-11-12T09:13:16.566Z,196.00
2017-11-12T09:14:16.528Z,224.00
2017-11-12T09:15:16.488Z,264.00
2017-11-12T09:16:16.451Z,268.00
2017-11-12T09:17:16.409Z,256.00
2017-11-12T09:18:16.372Z,260.00
2017-11-12T09:19:16.333Z,260.00
2017-11-12T09:20:16.289Z,252.00
2017-11-12T09:21:16.252Z,208.00
2017-11-12T09:22:16.212Z,168.00
2017-11-12T09:23:16.172Z,148.00
2017-11-12T09:24:16.134Z,172.00
2017-11-12T09:25:16.097Z,200.00
2017-11-12T09:26:16.054Z,220.00
2017-11-12T09:27:16.380Z,248.00
2017-11-12T09:28:15.975Z,284.00
2017-11-12T09:29:15.936Z,316.00
2017-11-12T09:30:15.897Z,352.00
2017-11-12T09:31:15.855Z,392.00
2017-11-12T09:32:15.815Z,416.00
2017-11-12T09:33:15.780Z,428.00
2017-11-12T09:34:15.737Z,400.00
2017-11-12T09:35:15.697Z,372.00
2017-11-12T09:36:15.660Z,368.00
2017-11-12T09:37:15.617Z,376.00
2017-11-12T09:38:15.578Z,368.00
2017-11-12T09:39:15.536Z,372.00
2017-11-12T09:40:15.501Z,432.00
2017-11-12T09:41:15.460Z,520.00
2017-11-12T09:42:15.421Z,620.00
2017-11-12T09:43:15.382Z,820.00
2017-11-12T09:44:15.340Z,1088.00
2017-11-12T09:45:15.301Z,1288.00
2017-11-12T09:46:15.263Z,1380.00
2017-11-12T09:47:15.223Z,1400.00
2017-11-12T09:48:15.185Z,1336.00
2017-11-12T09:49:15.143Z,1216.00
2017-11-12T09:50:15.104Z,1104.00
2017-11-12T09:51:15.067Z,1056.00
2017-11-12T09:52:15.055Z,1076.00
2017-11-12T09:53:14.987Z,1140.00
2017-11-12T09:54:14.950Z,1236.00
2017-11-12T09:55:14.908Z,1332.00
2017-11-12T09:56:14.869Z,1404.00
2017-11-12T09:57:15.675Z,1432.00
2017-11-12T09:58:14.803Z,1452.00
2017-11-12T09:59:14.756Z,1504.00
2017-11-12T10:00:14.712Z,1600.00
2017-11-12T10:01:14.672Z,1732.00
2017-11-12T10:02:14.686Z,1880.00
2017-11-12T10:03:14.592Z,2012.00
2017-11-12T10:04:14.726Z,2152.00
2017-11-12T10:05:14.516Z,2224.00
2017-11-12T10:06:14.725Z,2224.00
2017-11-12T10:07:14.441Z,2224.00
2017-11-12T10:08:14.402Z,2124.00
2017-11-12T10:09:14.365Z,1948.00
2017-11-12T10:10:14.325Z,1812.00
2017-11-12T10:11:14.287Z,1756.00
2017-11-12T10:12:14.250Z,1668.00
2017-11-12T10:13:14.209Z,1620.00
2017-11-12T10:14:14.173Z,1604.00
2017-11-12T10:15:14.153Z,1516.00
2017-11-12T10:16:14.092Z,1452.00
2017-11-12T10:17:14.058Z,1424.00
2017-11-12T10:18:14.020Z,1368.00
2017-11-12T10:19:14.041Z,1276.00
2017-11-12T10:20:13.945Z,1148.00
2017-11-12T10:21:13.905Z,1048.00
2017-11-12T10:22:13.868Z,964.00
2017-11-12T10:23:13.830Z,896.00
2017-11-12T10:24:13.793Z,852.00
2017-11-12T10:25:13.753Z,800.00
2017-11-12T10:26:13.716Z,760.00
2017-11-12T10:27:13.677Z,692.00
2017-11-12T10:28:13.639Z,628.00
2017-11-12T10:29:13.608Z,608.00
2017-11-12T10:30:13.562Z,624.00
2017-11-12T10:31:13.524Z,628.00
2017-11-12T10:32:13.484Z,620.00
2017-11-12T10:33:13.445Z,572.00
2017-11-12T10:34:13.406Z,484.00
2017-11-12T10:35:13.372Z,408.00
2017-11-12T10:36:13.334Z,388.00
2017-11-12T10:37:13.291Z,388.00
2017-11-12T10:38:13.254Z,416.00
2017-11-12T10:39:13.218Z,424.00
2017-11-12T10:40:13.177Z,436.00
2017-11-12T10:41:13.137Z,452.00
2017-11-12T10:42:13.097Z,452.00
2017-11-12T10:43:13.061Z,456.00
2017-11-12T10:44:13.020Z,468.00
2017-11-12T10:45:12.980Z,492.00
2017-11-12T10:46:12.943Z,504.00
2017-11-12T10:47:12.998Z,504.00
2017-11-12T10:48:12.862Z,488.00
2017-11-12T10:49:12.825Z,524.00
2017-11-12T10:50:12.788Z,512.00
2017-11-12T10:51:12.769Z,400.00
2017-11-12T10:52:12.707Z,340.00
2017-11-12T10:53:12.677Z,320.00
2017-11-12T10:54:12.632Z,324.00
2017-11-12T10:55:12.591Z,300.00
2017-11-12T10:56:12.553Z,356.00
2017-11-12T10:57:12.511Z,472.00
2017-11-12T10:58:12.473Z,592.00
2017-11-12T10:59:12.435Z,596.00
2017-11-12T11:00:12.397Z,532.00
2017-11-12T11:01:12.357Z,492.00
2017-11-12T11:02:12.319Z,596.00
2017-11-12T11:03:12.293Z,728.00
2017-11-12T11:04:12.237Z,884.00
2017-11-12T11:05:12.231Z,900.00
2017-11-12T11:06:12.868Z,880.00
2017-11-12T11:07:12.131Z,800.00
2017-11-12T11:08:12.082Z,784.00
2017-11-12T11:09:12.045Z,852.00
2017-11-12T11:10:12.005Z,940.00
2017-11-12T11:11:11.972Z,1004.00
2017-11-12T11:12:11.930Z,1228.00
2017-11-12T11:13:11.889Z,1332.00
2017-11-12T11:14:11.850Z,1144.00
2017-11-12T11:15:11.833Z,988.00
2017-11-12T11:16:11.772Z,936.00
2017-11-12T11:17:11.734Z,960.00
2017-11-12T11:18:11.695Z,996.00
2017-11-12T11:19:11.655Z,992.00
2017-11-12T11:20:11.617Z,652.00
2017-11-12T11:21:11.578Z,444.00
2017-11-12T11:22:11.535Z,384.00
2017-11-12T11:23:11.502Z,452.00
2017-11-12T11:24:11.461Z,556.00
2017-11-12T11:25:11.423Z,648.00
2017-11-12T11:26:11.387Z,720.00
2017-11-12T11:27:11.346Z,760.00
2017-11-12T11:28:11.307Z,808.00
2017-11-12T11:29:11.269Z,884.00
2017-11-12T11:30:11.232Z,912.00
2017-11-12T11:31:11.190Z,888.00
2017-11-12T11:32:11.152Z,900.00
2017-11-12T11:33:11.113Z,968.00
2017-11-12T11:34:11.076Z,996.00
2017-11-12T11:35:11.036Z,988.00
2017-11-12T11:36:10.996Z,968.00
2017-11-12T11:37:10.956Z,928.00
2017-11-12T11:38:10.919Z,868.00
2017-11-12T11:39:10.878Z,832.00
2017-11-12T11:40:10.840Z,700.00
2017-11-12T11:41:10.801Z,640.00
2017-11-12T11:42:10.764Z,740.00
2017-11-12T11:43:10.723Z,876.00
2017-11-12T11:44:10.683Z,896.00
2017-11-12T11:45:10.644Z,948.00
2017-11-12T11:46:10.607Z,1112.00
2017-11-12T11:47:10.569Z,1240.00
2017-11-12T11:48:10.529Z,1308.00
2017-11-12T11:49:10.491Z,1360.00
2017-11-12T11:50:10.451Z,1404.00
2017-11-12T11:51:10.414Z,1436.00
2017-11-12T11:52:10.373Z,1424.00
2017-11-12T11:53:10.339Z,1444.00
2017-11-12T11:54:10.294Z,1424.00
2017-11-12T11:55:10.256Z,1496.00
2017-11-12T11:56:10.219Z,1992.00
2017-11-12T11:57:10.180Z,1672.00
2017-11-12T11:58:10.143Z,1592.00
2017-11-12T11:59:10.105Z,1572.00
2017-11-12T12:00:10.064Z,1580.00
2017-11-12T12:01:10.026Z,1480.00
2017-11-12T12:02:09.988Z,1520.00
2017-11-12T12:03:09.950Z,1620.00
2017-11-12T12:04:09.910Z,1668.00
2017-11-12T12:05:09.873Z,1832.00
2017-11-12T12:06:09.835Z,1808.00
2017-11-12T12:07:09.797Z,1888.00
2017-11-12T12:08:09.757Z,1900.00
2017-11-12T12:09:09.726Z,1932.00
2017-11-12T12:10:09.683Z,2184.00
2017-11-12T12:11:09.643Z,1776.00
2017-11-12T12:12:09.605Z,1596.00
2017-11-12T12:13:09.567Z,1460.00
2017-11-12T12:14:09.529Z,2100.00
2017-11-12T12:15:09.491Z,2268.00
2017-11-12T12:16:09.453Z,5992.00
2017-11-12T12:17:09.413Z,3716.00
2017-11-12T12:18:09.377Z,3024.00
2017-11-12T12:19:09.340Z,2988.00
2017-11-12T12:20:09.301Z,2980.00
2017-11-12T12:21:09.341Z,3040.00
2017-11-12T12:22:09.226Z,3764.00
2017-11-12T12:23:09.189Z,2860.00
2017-11-12T12:24:09.150Z,2896.00
2017-11-12T12:25:09.115Z,2944.00
2017-11-12T12:26:09.079Z,3364.00
2017-11-12T12:27:09.041Z,3524.00
2017-11-12T12:28:09.000Z,3336.00
2017-11-12T12:29:08.962Z,3284.00
2017-11-12T12:30:08.925Z,2668.00
2017-11-12T12:31:08.889Z,2448.00
2017-11-12T12:32:08.848Z,2132.00
2017-11-12T12:33:08.812Z,1888.00
2017-11-12T12:34:08.775Z,1908.00
2017-11-12T12:35:08.732Z,1620.00
2017-11-12T12:36:08.698Z,1432.00
2017-11-12T12:37:08.662Z,1252.00
2017-11-12T12:38:08.626Z,1152.00
2017-11-12T12:39:08.587Z,1148.00
2017-11-12T12:40:08.549Z,1196.00
2017-11-12T12:41:08.519Z,1296.00
2017-11-12T12:42:08.472Z,1264.00
2017-11-12T12:43:08.434Z,1192.00
2017-11-12T12:44:08.398Z,1120.00
2017-11-12T12:45:08.361Z,1124.00
2017-11-12T12:46:08.321Z,1156.00
2017-11-12T12:47:08.284Z,1204.00
2017-11-12T12:48:08.244Z,1280.00
2017-11-12T12:49:08.207Z,1372.00
2017-11-12T12:50:08.170Z,1480.00
2017-11-12T12:51:08.132Z,1616.00